Time;durP1;ratioP1;P1;durP2;ratioP2;P2;SDS_P1;SDS_P2;PMS_P1;PMS_P2;Temp;Humidity;BMP_temperature;BMP_pressure;BME280_temperature;BME280_humidity;BME280_pressure;Samples;Min_cycle;Max_cycle;Signal;HPM_P1;HPM_P2
2023/12/15 00:02:45;;;;;;;24.20;13.00;;;;;;;0.38;94.65;100420.17;218820;1260;139950;-64
2023/12/15 00:07:50;;;;;;;20.20;11.20;;;;;;;0.36;94.36;100423.70;217751;1261;140138;-63
2023/12/15 00:12:54;;;;;;;27.20;12.10;;;;;;;0.35;94.36;100428.05;218625;1257;139879;-63
2023/12/15 00:17:59;;;;;;;22.90;12.80;;;;;;;0.32;94.11;100439.60;217841;1257;139996;-63
2023/12/15 00:23:04;;;;;;;23.90;13.50;;;;;;;0.33;94.46;100443.15;217509;1257;140464;-64
2023/12/15 00:28:08;;;;;;;19.80;12.80;;;;;;;0.33;94.32;100454.72;217929;1256;140691;-65
2023/12/15 00:33:13;;;;;;;19.30;12.40;;;;;;;0.31;94.28;100462.09;217812;1257;139747;-63
2023/12/15 00:38:18;;;;;;;18.20;11.10;;;;;;;0.27;94.26;100470.06;218047;1257;139839;-62
2023/12/15 00:43:22;;;;;;;18.80;10.90;;;;;;;0.23;94.11;100485.95;218680;1257;139938;-64
2023/12/15 00:48:26;;;;;;;17.90;10.50;;;;;;;0.22;93.65;100496.95;217352;1257;159686;-64
2023/12/15 00:53:32;;;;;;;19.10;10.70;;;;;;;0.20;93.72;100502.54;219148;1260;139912;-63
2023/12/15 00:58:37;;;;;;;18.80;9.60;;;;;;;0.22;93.82;100509.92;217576;1257;139820;-63
2023/12/15 01:03:42;;;;;;;27.10;13.20;;;;;;;0.22;93.99;100519.86;219521;1256;140283;-63
2023/12/15 01:08:47;;;;;;;19.50;12.20;;;;;;;0.20;94.10;100523.84;219281;1260;139996;-63
2023/12/15 01:13:51;;;;;;;22.50;14.10;;;;;;;0.21;93.80;100534.57;220577;1260;140914;-65
2023/12/15 01:18:55;;;;;;;19.70;12.40;;;;;;;0.24;93.67;100544.80;220372;1256;161670;-65
2023/12/15 01:23:59;;;;;;;27.90;14.00;;;;;;;0.27;93.89;100554.27;220558;1256;140231;-65
2023/12/15 01:29:02;;;;;;;20.10;11.30;;;;;;;0.30;93.56;100559.60;220398;1257;139905;-66
2023/12/15 01:34:07;;;;;;;25.20;13.10;;;;;;;0.31;93.21;100565.41;220449;1256;139783;-66
2023/12/15 01:39:11;;;;;;;22.30;10.90;;;;;;;0.32;93.04;100559.39;220558;1257;140704;-66
2023/12/15 01:44:16;;;;;;;19.50;12.00;;;;;;;0.36;93.25;100564.10;219213;1256;139814;-66
2023/12/15 01:49:22;;;;;;;18.80;12.80;;;;;;;0.38;93.07;100573.33;219419;1256;139821;-65
2023/12/15 01:54:27;;;;;;;23.30;15.20;;;;;;;0.41;93.25;100582.38;219858;1256;139816;-65
2023/12/15 01:59:46;;;;;;;14.70;11.40;;;;;;;0.41;92.78;100583.54;218593;1257;140734;-65
2023/12/15 02:04:51;;;;;;;23.40;11.90;;;;;;;0.42;93.20;100589.98;218954;1256;140545;-65
2023/12/15 02:09:55;;;;;;;15.60;9.80;;;;;;;0.42;93.14;100590.80;218574;1262;140587;-64
2023/12/15 02:15:00;;;;;;;23.70;13.80;;;;;;;0.44;93.31;100596.91;218741;1260;139817;-64
2023/12/15 02:20:07;;;;;;;20.00;12.20;;;;;;;0.43;92.80;100600.48;217801;1256;139772;-63
2023/12/15 02:25:11;;;;;;;18.50;13.30;;;;;;;0.42;92.65;100607.97;217655;1261;140287;-63
2023/12/15 02:30:15;;;;;;;22.70;12.00;;;;;;;0.42;93.25;100609.87;217833;1257;139978;-64
2023/12/15 02:35:21;;;;;;;22.50;11.40;;;;;;;0.39;92.91;100615.23;218277;1256;139780;-64
2023/12/15 02:40:25;;;;;;;21.60;12.20;;;;;;;0.30;92.41;100620.98;217974;1256;139635;-62
2023/12/15 02:45:31;;;;;;;21.80;11.40;;;;;;;0.23;92.47;100619.70;217606;1259;139971;-62
2023/12/15 02:50:35;;;;;;;24.40;12.00;;;;;;;0.21;92.91;100625.88;218094;1257;141118;-62
2023/12/15 02:55:40;;;;;;;25.80;12.40;;;;;;;0.18;92.97;100612.49;218444;1256;140082;-62
2023/12/15 03:00:46;;;;;;;18.10;11.70;;;;;;;0.20;92.72;100595.55;218688;1259;140012;-63
2023/12/15 03:05:51;;;;;;;22.70;12.40;;;;;;;0.18;93.07;100616.92;218714;1257;139967;-64
2023/12/15 03:10:57;;;;;;;21.60;13.70;;;;;;;0.17;93.11;100637.46;219046;1261;140189;-63
2023/12/15 03:16:12;;;;;;;19.00;12.90;;;;;;;0.18;93.18;100657.08;218332;1256;140822;-62
2023/12/15 03:21:17;;;;;;;23.30;12.60;;;;;;;0.16;93.05;100664.23;220341;1256;141224;-64
2023/12/15 03:26:23;;;;;;;21.80;15.30;;;;;;;0.18;92.74;100673.59;219951;1257;144302;-64
2023/12/15 03:31:28;;;;;;;22.80;11.60;;;;;;;0.20;93.16;100686.79;219779;1260;139997;-65
2023/12/15 03:36:35;;;;;;;21.90;12.50;;;;;;;0.22;92.85;100691.29;218283;1256;140774;-65
2023/12/15 03:41:39;;;;;;;;;;;;;;;0.26;93.09;100702.48;218697;1261;139774;-63
2023/12/15 03:46:45;;;;;;;21.10;11.20;;;;;;;0.26;92.95;100703.04;218372;1262;127556;-63
2023/12/15 03:51:49;;;;;;;21.70;12.50;;;;;;;0.26;92.81;100705.30;218402;1257;140838;-62
2023/12/15 03:57:00;;;;;;;21.90;13.00;;;;;;;0.24;92.70;100707.40;218405;1258;139795;-63
2023/12/15 04:02:06;;;;;;;18.40;10.70;;;;;;;0.24;92.98;100706.91;217804;1260;139776;-64
2023/12/15 04:07:12;;;;;;;24.80;11.10;;;;;;;0.17;92.63;100703.36;218855;1256;139839;-65
2023/12/15 04:12:16;;;;;;;16.30;11.10;;;;;;;0.11;92.71;100708.30;219224;1257;140102;-64
2023/12/15 04:17:21;;;;;;;17.90;10.10;;;;;;;0.12;92.82;100716.73;218451;1257;140071;-63
2023/12/15 04:22:25;;;;;;;15.60;11.30;;;;;;;0.12;92.95;100721.42;219078;1258;139760;-63
2023/12/15 04:27:30;;;;;;;19.30;11.00;;;;;;;0.11;92.85;100727.83;218143;1260;139851;-63
2023/12/15 04:32:35;;;;;;;25.00;11.70;;;;;;;0.10;92.57;100733.05;219003;1260;139904;-65
2023/12/15 04:37:44;;;;;;;16.80;10.60;;;;;;;0.11;93.00;100741.52;218006;1260;139779;-64
2023/12/15 04:42:49;;;;;;;18.90;10.20;;;;;;;0.13;92.91;100753.91;218632;1260;151522;-64
2023/12/15 04:47:54;;;;;;;20.90;9.70;;;;;;;0.10;92.82;100757.80;218649;1260;139822;-65
2023/12/15 04:52:59;;;;;;;17.10;11.40;;;;;;;0.10;93.01;100758.38;218271;1257;142214;-63
2023/12/15 04:58:04;;;;;;;18.10;11.10;;;;;;;0.07;92.54;100756.38;218521;1260;139719;-66
2023/12/15 05:03:09;;;;;;;16.50;10.50;;;;;;;0.06;92.85;100760.35;217923;1257;140043;-65
2023/12/15 05:08:14;;;;;;;20.00;10.20;;;;;;;0.09;93.12;100770.52;219386;1257;140509;-65
2023/12/15 05:13:19;;;;;;;19.40;9.40;;;;;;;0.12;92.82;100778.83;219099;1257;139465;-65
2023/12/15 05:18:24;;;;;;;18.90;11.40;;;;;;;0.13;93.27;100777.45;220546;1256;140021;-64
2023/12/15 05:23:29;;;;;;;20.20;10.10;;;;;;;0.16;92.71;100778.21;220599;1257;139747;-64
2023/12/15 05:28:33;;;;;;;20.30;10.30;;;;;;;0.19;92.94;100775.53;220394;1257;139819;-64
2023/12/15 05:33:37;;;;;;;19.60;10.30;;;;;;;0.20;92.87;100782.60;220441;1257;140692;-64
2023/12/15 05:38:42;;;;;;;17.60;9.70;;;;;;;0.21;92.73;100796.64;219155;1257;140327;-65
2023/12/15 05:43:47;;;;;;;19.10;10.50;;;;;;;0.24;92.67;100801.34;219161;1256;140087;-64
2023/12/15 05:48:52;;;;;;;18.20;11.10;;;;;;;0.25;92.74;100807.66;219586;1257;140052;-65
2023/12/15 05:53:57;;;;;;;19.00;9.50;;;;;;;0.27;92.68;100812.92;218470;1257;140233;-65
2023/12/15 05:59:02;;;;;;;15.80;9.40;;;;;;;0.28;92.57;100815.04;219485;1257;139577;-65
2023/12/15 06:04:08;;;;;;;19.20;9.70;;;;;;;0.30;93.09;100818.89;218549;1257;139720;-64
2023/12/15 06:09:13;;;;;;;14.50;10.40;;;;;;;0.31;92.73;100829.79;219072;1257;140785;-65
2023/12/15 06:14:18;;;;;;;19.30;10.60;;;;;;;0.33;92.75;100835.70;220264;1257;142155;-65
2023/12/15 06:19:23;;;;;;;13.50;9.10;;;;;;;0.34;92.83;100839.33;217568;1257;140082;-66
2023/12/15 06:24:29;;;;;;;18.50;12.40;;;;;;;0.38;92.69;100848.79;218556;1257;140356;-66
2023/12/15 06:29:33;;;;;;;15.20;9.30;;;;;;;0.39;93.06;100854.64;218748;1260;139543;-66
2023/12/15 06:34:42;;;;;;;20.70;11.60;;;;;;;0.39;93.18;100867.36;218478;1257;139507;-67
2023/12/15 06:39:47;;;;;;;20.40;12.20;;;;;;;0.42;93.08;100870.41;217634;1260;140728;-65
2023/12/15 06:44:51;;;;;;;18.30;11.50;;;;;;;0.41;93.15;100881.70;218964;1257;140230;-66
2023/12/15 06:49:56;;;;;;;20.30;11.50;;;;;;;0.42;93.61;100891.23;217903;1260;140065;-64
2023/12/15 06:55:01;;;;;;;23.00;13.10;;;;;;;0.45;93.42;100903.21;218358;1257;139963;-64
2023/12/15 07:00:06;;;;;;;26.40;13.70;;;;;;;0.47;93.47;100908.55;219095;1256;139783;-64
2023/12/15 07:05:11;;;;;;;19.70;13.20;;;;;;;0.51;94.00;100918.55;217860;1256;141547;-64
2023/12/15 07:10:16;;;;;;;23.60;13.50;;;;;;;0.54;93.79;100921.13;219341;1257;140027;-65
2023/12/15 07:15:21;;;;;;;31.30;15.70;;;;;;;0.55;93.71;100929.90;219922;1257;140188;-64
2023/12/15 07:20:25;;;;;;;21.20;12.80;;;;;;;0.59;93.86;100937.27;219691;1256;139835;-64
2023/12/15 07:25:31;;;;;;;27.10;14.20;;;;;;;0.63;93.83;100939.29;220039;1257;140719;-64
2023/12/15 07:30:35;;;;;;;29.20;15.70;;;;;;;0.69;93.77;100942.26;220416;1257;140084;-65
2023/12/15 07:35:40;;;;;;;23.20;16.70;;;;;;;0.71;93.55;100951.65;220499;1256;141589;-66
2023/12/15 07:40:44;;;;;;;24.40;16.60;;;;;;;0.76;93.82;100956.45;219091;1257;140767;-64
2023/12/15 07:45:49;;;;;;;25.90;15.70;;;;;;;0.80;93.50;100962.38;217943;1256;139678;-64
2023/12/15 07:50:54;;;;;;;24.20;16.50;;;;;;;0.85;94.12;100967.70;218970;1257;139586;-64
2023/12/15 07:55:58;;;;;;;23.60;14.90;;;;;;;0.87;93.85;100975.01;218412;1257;139874;-64
2023/12/15 08:01:04;;;;;;;26.00;17.40;;;;;;;0.87;93.90;100983.04;218977;1257;139962;-64
2023/12/15 08:06:10;;;;;;;22.50;15.40;;;;;;;0.85;93.99;100996.20;219023;1257;139741;-63
2023/12/15 08:11:15;;;;;;;26.70;17.20;;;;;;;0.84;94.30;101002.24;218235;1257;140194;-63
2023/12/15 08:16:20;;;;;;;28.70;16.60;;;;;;;0.86;94.29;101012.77;218737;1256;139776;-63
2023/12/15 08:21:25;;;;;;;27.70;15.40;;;;;;;0.87;94.20;101013.91;217874;1257;140107;-64
2023/12/15 08:26:30;;;;;;;24.60;16.30;;;;;;;0.88;93.81;101024.52;218072;1258;139971;-64
2023/12/15 08:31:34;;;;;;;24.70;15.90;;;;;;;0.85;94.50;101031.76;219459;1256;140521;-65
2023/12/15 08:36:39;;;;;;;26.30;16.10;;;;;;;0.87;94.34;101038.26;218527;1256;140076;-65
2023/12/15 08:41:44;;;;;;;25.90;16.90;;;;;;;0.94;94.36;101045.23;218696;1257;139965;-65
2023/12/15 08:46:49;;;;;;;23.90;16.20;;;;;;;0.99;94.36;101053.89;218410;1256;139883;-64
2023/12/15 08:51:54;;;;;;;31.70;17.50;;;;;;;1.10;95.19;101061.54;219233;1256;139796;-63
2023/12/15 08:57:00;;;;;;;30.30;18.90;;;;;;;1.17;94.86;101064.69;217973;1256;140532;-64
2023/12/15 09:02:06;;;;;;;25.70;18.40;;;;;;;1.24;95.01;101073.80;218558;1256;140848;-64
2023/12/15 09:07:12;;;;;;;30.90;18.50;;;;;;;1.28;94.87;101077.63;219021;1257;140593;-64
2023/12/15 09:12:19;;;;;;;27.30;17.00;;;;;;;1.32;95.12;101080.11;217938;1257;140645;-66
2023/12/15 09:17:24;;;;;;;34.00;22.10;;;;;;;1.35;95.10;101093.98;219261;1256;142196;-65
2023/12/15 09:22:30;;;;;;;30.80;22.10;;;;;;;1.37;94.85;101099.60;219960;1256;139901;-62
2023/12/15 09:27:34;;;;;;;30.80;17.70;;;;;;;1.41;94.97;101105.52;220522;1256;139799;-65
2023/12/15 09:32:39;;;;;;;28.20;17.40;;;;;;;1.48;94.83;101112.02;220444;1256;140075;-67
2023/12/15 09:37:44;;;;;;;21.30;14.50;;;;;;;1.55;94.92;101112.11;219831;1256;140736;-66
2023/12/15 09:42:50;;;;;;;30.20;20.50;;;;;;;1.64;94.74;101114.71;218649;1257;141259;-63
2023/12/15 09:47:55;;;;;;;21.60;14.40;;;;;;;1.78;95.14;101115.40;219240;1257;141219;-64
2023/12/15 09:53:03;;;;;;;27.90;16.80;;;;;;;1.87;94.83;101113.85;218778;1258;140987;-64
2023/12/15 09:58:09;;;;;;;28.50;19.00;;;;;;;1.91;94.67;101115.21;218412;1257;140414;-63
2023/12/15 10:03:14;;;;;;;32.60;16.50;;;;;;;1.97;94.62;101115.50;217985;1257;139780;-63
2023/12/15 10:08:23;;;;;;;30.00;16.20;;;;;;;2.01;94.48;101116.84;218087;1258;484926;-65
2023/12/15 10:13:29;;;;;;;27.60;15.10;;;;;;;2.05;94.36;101113.14;218444;1257;139718;-63
2023/12/15 10:18:34;;;;;;;27.80;15.70;;;;;;;2.14;94.78;101109.63;218160;1257;140030;-66
2023/12/15 10:23:49;;;;;;;25.80;14.90;;;;;;;2.22;94.72;101114.45;217985;1262;140100;-65
2023/12/15 10:28:57;;;;;;;24.20;17.50;;;;;;;2.31;94.45;101117.30;218439;1257;139773;-66
2023/12/15 10:34:03;;;;;;;25.30;15.60;;;;;;;2.36;94.43;101124.52;218963;1257;140833;-67
2023/12/15 10:39:10;;;;;;;16.90;10.10;;;;;;;2.43;94.33;101127.10;218751;1258;139740;-66
2023/12/15 10:44:15;;;;;;;20.50;15.00;;;;;;;2.48;94.15;101129.00;218106;1258;139630;-66
2023/12/15 10:49:20;;;;;;;20.40;13.90;;;;;;;2.50;93.86;101134.42;218144;1258;139571;-66
2023/12/15 10:54:27;;;;;;;46.10;24.30;;;;;;;2.56;94.07;101139.08;217774;1257;140184;-65
2023/12/15 10:59:32;;;;;;;23.00;15.60;;;;;;;2.68;94.05;101143.33;219439;1257;140491;-69
2023/12/15 11:04:37;;;;;;;19.20;13.70;;;;;;;2.74;93.81;101140.30;217498;1258;140553;-66
2023/12/15 11:09:42;;;;;;;18.70;12.20;;;;;;;2.81;93.68;101132.10;220075;1257;140940;-66
2023/12/15 11:15:03;;;;;;;20.50;14.60;;;;;;;2.84;93.55;101131.41;220214;1257;140714;-66
2023/12/15 11:20:12;;;;;;;15.60;11.30;;;;;;;2.85;93.25;101121.67;219472;1257;140779;-66
2023/12/15 11:25:18;;;;;;;15.30;10.80;;;;;;;2.89;93.09;101119.13;220159;1257;140055;-66
2023/12/15 11:30:29;;;;;;;19.90;12.00;;;;;;;2.93;92.94;101130.22;219759;1257;140489;-67
2023/12/15 11:35:35;;;;;;;15.40;12.70;;;;;;;3.02;93.02;101139.23;218989;1258;141994;-66
2023/12/15 11:40:41;;;;;;;17.50;12.60;;;;;;;3.02;92.67;101142.40;219902;1258;139993;-66
2023/12/15 11:45:48;;;;;;;16.90;12.40;;;;;;;3.04;92.88;101153.81;219240;1257;140542;-66
2023/12/15 11:50:53;;;;;;;20.50;15.00;;;;;;;3.09;92.65;101150.89;217358;1260;139813;-65
2023/12/15 11:56:01;;;;;;;22.30;13.20;;;;;;;3.05;92.58;101158.97;218402;1257;140144;-66
2023/12/15 12:01:08;;;;;;;21.50;13.90;;;;;;;2.95;92.00;101165.08;218014;1258;139562;-66
2023/12/15 12:06:20;;;;;;;14.90;10.30;;;;;;;2.80;91.88;101175.85;218647;1257;140514;-66
2023/12/15 12:11:25;;;;;;;22.80;12.70;;;;;;;2.80;92.26;101189.73;217278;1259;139814;-65
2023/12/15 12:16:32;;;;;;;24.30;13.30;;;;;;;2.78;92.09;101191.90;217818;1258;140009;-65
2023/12/15 12:21:37;;;;;;;17.90;12.20;;;;;;;2.70;92.20;101194.81;218001;1261;139620;-66
2023/12/15 12:26:42;;;;;;;20.10;11.70;;;;;;;2.73;92.20;101192.88;217997;1257;139798;-66
2023/12/15 12:31:47;;;;;;;24.20;13.30;;;;;;;2.78;92.42;101190.25;218427;1259;139926;-66
2023/12/15 12:36:51;;;;;;;13.80;9.20;;;;;;;2.76;92.15;101188.94;218239;1257;140295;-66
2023/12/15 12:41:55;;;;;;;20.20;12.80;;;;;;;2.75;92.10;101194.30;218797;1257;139948;-67
2023/12/15 12:47:00;;;;;;;17.20;14.10;;;;;;;2.77;91.91;101196.59;217743;1258;139823;-66
2023/12/15 12:52:04;;;;;;;10.30;7.60;;;;;;;2.89;92.09;101199.08;219519;1257;140243;-66
2023/12/15 12:57:09;;;;;;;18.30;11.90;;;;;;;3.03;91.92;101190.25;218018;1259;139778;-66
2023/12/15 13:02:13;;;;;;;21.30;13.40;;;;;;;3.12;91.79;101189.09;218992;1259;140190;-66
2023/12/15 13:07:26;;;;;;;17.40;12.20;;;;;;;3.01;91.22;101190.17;219347;1257;140329;-66
2023/12/15 13:12:30;;;;;;;21.30;12.00;;;;;;;2.93;91.14;101187.08;220186;1257;140147;-67
2023/12/15 13:17:35;;;;;;;16.90;11.90;;;;;;;2.87;90.91;101183.20;220307;1257;140454;-66
2023/12/15 13:22:39;;;;;;;15.20;9.70;;;;;;;2.87;91.01;101194.83;220112;1258;141589;-65
2023/12/15 13:27:52;;;;;;;17.60;12.10;;;;;;;2.83;90.34;101207.70;219473;1259;140499;-66
2023/12/15 13:32:57;;;;;;;17.70;10.30;;;;;;;2.77;90.42;101217.75;219356;1259;140965;-66
2023/12/15 13:38:02;;;;;;;17.30;11.80;;;;;;;2.71;90.10;101220.16;217633;1258;139592;-66
2023/12/15 13:43:06;;;;;;;20.00;10.40;;;;;;;2.66;90.09;101227.48;218587;1257;140551;-66
2023/12/15 13:48:10;;;;;;;17.20;10.80;;;;;;;2.61;90.13;101229.33;219136;1257;140072;-65
2023/12/15 13:53:16;;;;;;;21.10;11.90;;;;;;;2.57;89.90;101233.41;217418;1258;139985;-66
2023/12/15 13:58:21;;;;;;;18.10;10.60;;;;;;;2.55;90.05;101232.67;218259;1257;139779;-66
2023/12/15 14:03:27;;;;;;;22.20;10.90;;;;;;;2.50;89.60;101234.27;218017;1257;139974;-66
2023/12/15 14:08:32;;;;;;;21.00;11.60;;;;;;;2.44;89.65;101233.13;217891;1257;140230;-65
2023/12/15 14:13:38;;;;;;;15.50;11.30;;;;;;;2.41;89.69;101246.23;218167;1257;141940;-66
2023/12/15 14:18:43;;;;;;;23.50;15.80;;;;;;;2.35;89.39;101249.90;217339;1257;139850;-66
2023/12/15 14:23:47;;;;;;;22.20;12.70;;;;;;;2.27;89.36;101253.80;218208;1260;140922;-66
2023/12/15 14:28:52;;;;;;;27.50;15.10;;;;;;;2.21;89.25;101253.67;218405;1257;140176;-66
2023/12/15 14:33:56;;;;;;;25.60;13.80;;;;;;;2.18;89.35;101255.31;217452;1261;141300;-66
2023/12/15 14:39:05;;;;;;;22.10;15.00;;;;;;;2.15;89.33;101253.66;218884;1258;140580;-67
2023/12/15 14:44:15;;;;;;;30.90;15.10;;;;;;;2.13;89.24;101256.57;217872;1261;142715;-66
2023/12/15 14:49:20;;;;;;;23.30;13.70;;;;;;;2.10;89.49;101253.67;218852;1257;139974;-66
2023/12/15 14:54:26;;;;;;;24.20;15.10;;;;;;;2.04;89.16;101249.11;219379;1257;140702;-66
2023/12/15 14:59:31;;;;;;;27.90;15.30;;;;;;;2.02;89.35;101257.42;218466;1257;140410;-66
2023/12/15 15:04:35;;;;;;;22.50;14.90;;;;;;;1.99;89.43;101261.14;219569;1257;139954;-65
2023/12/15 15:09:40;;;;;;;23.10;15.30;;;;;;;1.99;89.46;101270.14;219041;1257;140145;-66
2023/12/15 15:14:44;;;;;;;26.30;12.70;;;;;;;1.97;89.30;101282.90;220032;1257;140686;-66
2023/12/15 15:19:51;;;;;;;27.20;13.80;;;;;;;1.97;89.24;101289.23;219616;1257;150801;-66
2023/12/15 15:24:56;;;;;;;27.40;15.60;;;;;;;1.96;89.25;101292.12;219337;1257;140906;-65
2023/12/15 15:30:01;;;;;;;23.60;14.90;;;;;;;1.96;89.11;101287.77;220088;1257;140245;-66
2023/12/15 15:35:11;;;;;;;27.10;16.20;;;;;;;1.96;89.28;101282.30;218061;1257;140091;-65
2023/12/15 15:40:18;;;;;;;28.20;17.10;;;;;;;1.98;89.17;101278.58;218555;1257;140765;-66
2023/12/15 15:45:22;;;;;;;26.80;14.80;;;;;;;1.97;89.28;101283.27;218284;1257;139756;-64
2023/12/15 15:50:31;;;;;;;25.20;14.80;;;;;;;1.93;89.28;101285.77;217670;1261;140191;-66
2023/12/15 15:55:40;;;;;;;28.20;17.50;;;;;;;1.91;89.15;101288.60;217947;1257;140502;-66
2023/12/15 16:00:55;;;;;;;30.10;15.00;;;;;;;1.88;89.34;101289.48;218539;1257;141340;-64
2023/12/15 16:06:18;;;;;;;29.90;17.30;;;;;;;1.83;89.26;101295.92;217565;1258;139533;-65
2023/12/15 16:11:32;;;;;;;20.50;14.10;;;;;;;1.79;89.41;101292.54;218462;1258;236219;-65
2023/12/15 16:16:39;;;;;;;35.10;18.80;;;;;;;1.76;89.59;101298.23;217617;1257;140198;-65
2023/12/15 16:21:47;;;;;;;;;;;;;;;1.74;89.81;101301.86;217918;1257;140356;-65
2023/12/15 16:26:52;;;;;;;36.90;18.70;;;;;;;1.72;89.57;101306.63;218603;1258;125942;-66
2023/12/15 16:32:01;;;;;;;28.90;16.00;;;;;;;1.72;89.55;101306.29;218337;1257;141018;-64
2023/12/15 16:37:07;;;;;;;32.00;19.00;;;;;;;1.66;89.66;101310.96;218529;1257;140976;-65
2023/12/15 16:42:13;;;;;;;30.80;17.40;;;;;;;1.65;89.90;101308.38;217630;1261;141201;-65
2023/12/15 16:47:44;;;;;;;35.80;19.20;;;;;;;1.66;89.51;101306.61;218799;1259;139873;-65
2023/12/15 16:52:48;;;;;;;24.40;15.10;;;;;;;1.67;89.71;101304.27;217869;1260;140263;-65
2023/12/15 16:57:55;;;;;;;32.20;17.50;;;;;;;1.63;89.74;101313.51;220158;1257;141311;-66
2023/12/15 17:02:59;;;;;;;32.90;17.30;;;;;;;1.65;90.10;101314.03;218051;1260;140646;-65
2023/12/15 17:08:06;;;;;;;30.10;18.90;;;;;;;1.67;89.67;101314.23;219457;1258;140587;-65
2023/12/15 17:13:10;;;;;;;23.90;15.30;;;;;;;1.66;89.98;101312.38;220236;1261;140032;-65
2023/12/15 17:18:16;;;;;;;33.80;18.80;;;;;;;1.68;89.97;101309.74;217649;1258;140190;-65
2023/12/15 17:23:22;;;;;;;29.70;17.80;;;;;;;1.67;89.89;101307.70;219891;1257;140305;-65
2023/12/15 17:28:27;;;;;;;31.80;18.10;;;;;;;1.65;89.99;101312.81;220250;1258;141816;-65
2023/12/15 17:33:33;;;;;;;30.70;16.60;;;;;;;1.64;90.07;101320.23;218731;1257;140698;-65
2023/12/15 17:38:40;;;;;;;24.30;13.00;;;;;;;1.65;90.29;101327.01;218079;1259;141101;-65
2023/12/15 17:43:47;;;;;;;31.10;16.10;;;;;;;1.65;90.18;101329.69;219306;1257;140481;-66
2023/12/15 17:48:52;;;;;;;38.90;18.80;;;;;;;1.64;90.50;101339.38;217556;1260;140355;-65
2023/12/15 17:53:57;;;;;;;26.40;15.30;;;;;;;1.63;90.43;101353.32;217853;1260;140135;-64
2023/12/15 17:59:02;;;;;;;26.10;15.00;;;;;;;1.62;90.50;101368.14;218488;1258;140414;-65
2023/12/15 18:04:06;;;;;;;29.60;17.60;;;;;;;1.62;90.65;101371.61;217648;1259;139913;-65
2023/12/15 18:09:13;;;;;;;32.80;19.80;;;;;;;1.63;90.85;101374.20;217888;1261;139838;-64
2023/12/15 18:14:22;;;;;;;32.20;17.20;;;;;;;1.62;90.89;101374.37;218190;1259;140001;-64
2023/12/15 18:19:28;;;;;;;25.50;15.20;;;;;;;1.66;91.09;101380.91;217922;1261;139993;-64
2023/12/15 18:24:33;;;;;;;33.50;15.80;;;;;;;1.67;91.08;101390.42;218479;1261;141071;-64
2023/12/15 18:29:40;;;;;;;30.60;16.50;;;;;;;1.68;91.47;101390.52;218210;1259;140336;-65
2023/12/15 18:34:45;;;;;;;29.20;16.60;;;;;;;1.73;91.20;101392.30;219037;1261;140382;-68
2023/12/15 18:39:52;;;;;;;27.50;18.30;;;;;;;1.75;91.29;101396.76;217970;1258;139923;-66
2023/12/15 18:44:59;;;;;;;33.00;19.20;;;;;;;1.79;91.35;101402.58;218590;1260;140009;-68
2023/12/15 18:50:06;;;;;;;31.80;17.70;;;;;;;1.80;91.63;101399.86;217405;1257;139717;-66
2023/12/15 18:55:11;;;;;;;36.70;20.30;;;;;;;1.80;91.64;101408.59;219197;1260;140392;-66
2023/12/15 19:00:17;;;;;;;32.60;19.10;;;;;;;1.81;91.55;101413.29;218015;1262;139861;-66
2023/12/15 19:05:27;;;;;;;34.40;17.40;;;;;;;1.86;91.83;101420.66;220232;1258;141114;-66
2023/12/15 19:10:32;;;;;;;32.80;19.80;;;;;;;1.90;91.59;101419.42;219316;1259;140349;-67
2023/12/15 19:15:36;;;;;;;32.90;19.10;;;;;;;1.92;91.81;101417.48;218780;1259;139852;-67
2023/12/15 19:20:42;;;;;;;35.40;20.10;;;;;;;1.94;91.62;101413.29;218627;1260;140075;-67
2023/12/15 19:25:49;;;;;;;24.30;15.50;;;;;;;1.94;91.66;101408.88;220001;1257;141408;-67
2023/12/15 19:30:57;;;;;;;31.90;18.90;;;;;;;1.94;91.66;101417.66;218725;1261;140865;-67
2023/12/15 19:36:04;;;;;;;33.50;19.50;;;;;;;1.96;91.91;101421.36;218419;1260;140384;-66
2023/12/15 19:41:16;;;;;;;31.20;18.20;;;;;;;1.99;92.03;101427.73;217999;1260;139627;-66
2023/12/15 19:46:31;;;;;;;28.50;17.90;;;;;;;1.99;91.83;101422.29;218279;1257;140538;-66
2023/12/15 19:51:40;;;;;;;32.30;18.60;;;;;;;2.00;91.83;101412.52;219171;1260;141903;-67
2023/12/15 19:56:46;;;;;;;32.80;17.60;;;;;;;2.01;92.10;101410.20;217432;1259;140462;-69
2023/12/15 20:01:55;;;;;;;31.30;17.90;;;;;;;1.99;91.96;101409.83;217534;1259;139738;-65
2023/12/15 20:07:03;;;;;;;27.70;17.70;;;;;;;2.02;92.33;101410.80;218310;1257;140020;-67
2023/12/15 20:12:10;;;;;;;33.90;17.70;;;;;;;2.04;92.32;101412.91;217933;1262;140122;-66
2023/12/15 20:17:15;;;;;;;27.60;17.10;;;;;;;2.08;92.39;101410.45;218700;1259;140106;-66
2023/12/15 20:22:21;;;;;;;27.50;16.30;;;;;;;2.09;92.22;101399.13;218040;1260;140928;-66
2023/12/15 20:27:26;;;;;;;29.10;18.00;;;;;;;2.08;92.16;101404.13;217478;1262;140530;-67
2023/12/15 20:32:32;;;;;;;26.20;16.10;;;;;;;2.08;92.24;101400.61;218973;1259;140280;-66
2023/12/15 20:37:40;;;;;;;22.90;12.90;;;;;;;2.10;92.63;101400.98;217981;1257;139868;-65
2023/12/15 20:42:47;;;;;;;30.40;17.60;;;;;;;2.11;92.71;101418.39;218739;1257;142192;-66
2023/12/15 20:47:52;;;;;;;31.00;17.20;;;;;;;2.10;92.67;101412.50;219281;1259;141054;-67
2023/12/15 20:52:57;;;;;;;31.50;15.10;;;;;;;2.11;92.62;101415.58;219777;1258;140154;-66
2023/12/15 20:58:03;;;;;;;30.40;19.00;;;;;;;2.13;92.74;101410.63;219141;1259;142362;-67
2023/12/15 21:03:10;;;;;;;38.10;27.10;;;;;;;2.14;92.71;101412.71;220016;1257;140517;-66
2023/12/15 21:08:16;;;;;;;25.60;16.20;;;;;;;2.13;92.73;101421.94;220139;1258;162356;-65
2023/12/15 21:13:26;;;;;;;32.90;18.60;;;;;;;2.15;92.73;101436.78;219349;1259;140385;-64
2023/12/15 21:18:32;;;;;;;37.20;17.30;;;;;;;2.18;92.69;101447.39;220026;1258;141790;-64
2023/12/15 21:23:37;;;;;;;22.80;15.10;;;;;;;2.17;92.65;101440.33;219534;1257;142358;-64
2023/12/15 21:28:47;;;;;;;29.90;17.60;;;;;;;2.16;92.94;101448.84;219334;1258;141544;-65
2023/12/15 21:33:53;;;;;;;31.60;18.30;;;;;;;2.17;92.92;101458.83;218762;1257;140107;-64
2023/12/15 21:39:05;;;;;;;58.20;31.70;;;;;;;2.18;93.00;101447.09;217644;1262;140158;-64
2023/12/15 21:44:12;;;;;;;40.40;21.60;;;;;;;2.19;93.50;101446.59;218595;1258;140772;-63
2023/12/15 21:55:45;;;;;;;34.80;18.30;;;;;;;2.21;93.67;101439.72;217298;1262;139851;-64
2023/12/15 22:00:55;;;;;;;36.40;18.90;;;;;;;2.23;93.69;101439.26;217723;1262;140027;-63
2023/12/15 22:06:06;;;;;;;47.30;23.00;;;;;;;2.21;93.69;101440.94;217867;1262;140135;-63
2023/12/15 22:11:17;;;;;;;36.80;18.90;;;;;;;2.20;93.74;101449.69;217375;1260;1862202;-63
2023/12/15 22:16:24;;;;;;;36.00;19.30;;;;;;;2.21;94.04;101455.36;217466;1262;142159;-64
2023/12/15 22:21:51;;;;;;;41.40;22.40;;;;;;;2.20;94.24;101458.58;218467;1260;140844;-64
2023/12/15 22:26:57;;;;;;;43.10;22.20;;;;;;;2.20;94.25;101446.65;218197;1261;140883;-64
2023/12/15 22:32:05;;;;;;;44.10;19.30;;;;;;;2.22;94.55;101447.02;218715;1262;140827;-65
2023/12/15 22:37:12;;;;;;;40.50;21.10;;;;;;;2.23;94.42;101456.23;218333;1258;141174;-64
2023/12/15 22:42:16;;;;;;;48.90;23.30;;;;;;;2.23;94.66;101462.71;217591;1263;140926;-63
2023/12/15 22:47:21;;;;;;;54.10;24.60;;;;;;;2.25;94.78;101465.70;220002;1262;140159;-63
2023/12/15 22:52:25;;;;;;;36.30;17.90;;;;;;;2.25;94.89;101461.66;219867;1262;140508;-66
2023/12/15 22:57:29;;;;;;;45.20;22.00;;;;;;;2.26;94.93;101467.70;220118;1258;140751;-66
2023/12/15 23:02:34;;;;;;;42.50;24.00;;;;;;;2.30;94.98;101465.92;220316;1257;139968;-63